createdAt,value
2022-09-03T00:10:10.532Z,46.3
2022-09-03T00:24:37.638Z,46
2022-09-03T00:39:04.401Z,46.2
2022-09-03T00:53:31.823Z,47.2
2022-09-03T01:08:05.190Z,47.3
2022-09-03T01:22:34.706Z,47.6
2022-09-03T01:36:59.019Z,47.5
2022-09-03T01:51:26.724Z,47.4
2022-09-03T02:05:54.170Z,48
2022-09-03T02:20:21.757Z,48.3
2022-09-03T02:34:49.610Z,48.6
2022-09-03T02:49:16.002Z,49.6
2022-09-03T03:03:43.616Z,49.7
2022-09-03T03:18:11.488Z,50.4
2022-09-03T03:32:38.439Z,50.6
2022-09-03T03:47:05.629Z,50.9
2022-09-03T04:01:37.777Z,50.9
2022-09-03T04:16:05.816Z,51.5
2022-09-03T04:30:28.889Z,51.8
2022-09-03T04:44:55.614Z,52.3
2022-09-03T04:59:24.814Z,52.6
2022-09-03T05:13:52.373Z,53.8
2022-09-03T05:28:17.273Z,52.9
2022-09-03T05:42:45.671Z,52.9
2022-09-03T05:57:12.461Z,52.5
2022-09-03T06:11:46.722Z,52
2022-09-03T06:26:16.877Z,50.6
2022-09-03T06:40:38.678Z,50.7
2022-09-03T06:55:07.686Z,49.9
2022-09-03T07:09:35.928Z,49.3
2022-09-03T07:24:06.532Z,48.2
2022-09-03T07:38:44.938Z,43.5
2022-09-03T07:53:17.950Z,42.7
2022-09-03T08:07:47.891Z,39.3
2022-09-03T08:22:10.317Z,38.4
2022-09-03T08:36:38.594Z,38.9
2022-09-03T08:51:10.344Z,38
2022-09-03T09:05:37.530Z,37.6
2022-09-03T09:20:10.297Z,35.7
2022-09-03T09:34:26.486Z,40.7
2022-09-03T09:48:49.634Z,43.4
2022-09-03T10:03:16.650Z,44
2022-09-03T10:17:43.734Z,44.4
2022-09-03T10:32:17.673Z,44
2022-09-03T10:46:48.111Z,43.8
2022-09-03T11:01:08.799Z,45
2022-09-03T11:15:43.576Z,44.5
2022-09-03T11:30:11.805Z,45.5
2022-09-03T11:44:34.393Z,45.1
2022-09-03T11:59:03.148Z,42
2022-09-03T12:13:30.693Z,44.6
2022-09-03T12:28:00.514Z,42.9
2022-09-03T12:42:27.289Z,43.6
2022-09-03T12:56:54.782Z,42.9
2022-09-03T13:11:20.650Z,45.9
2022-09-03T13:25:49.320Z,45.7
2022-09-03T13:40:18.392Z,45.5
2022-09-03T13:54:50.026Z,47.1
2022-09-03T14:09:16.978Z,48.7
2022-09-03T14:23:40.958Z,47.2
2022-09-03T14:38:09.508Z,46.6
2022-09-03T14:52:37.863Z,45.4
2022-09-03T15:07:03.285Z,46.3
2022-09-03T15:21:29.433Z,47.3
2022-09-03T15:35:56.731Z,47.4
2022-09-03T15:50:27.258Z,47.6
2022-09-03T16:04:52.437Z,48.7
2022-09-03T16:19:25.317Z,48.8
2022-09-03T16:33:53.175Z,50.1
2022-09-03T16:48:21.538Z,50.4
2022-09-03T17:02:51.297Z,51.2
2022-09-03T17:17:14.839Z,52.2
2022-09-03T17:31:42.372Z,51.6
2022-09-03T17:46:06.979Z,54.2
2022-09-03T18:00:33.338Z,55.2
2022-09-03T18:15:00.612Z,56.7
2022-09-03T18:29:26.496Z,59.7
2022-09-03T18:43:53.169Z,60.1
2022-09-03T18:58:18.989Z,60.6
2022-09-03T19:12:59.771Z,59.4
2022-09-03T19:27:58.781Z,60.7
2022-09-03T19:42:12.748Z,61.6
2022-09-03T19:56:40.014Z,63.1
2022-09-03T20:10:59.213Z,63.1
2022-09-03T20:25:25.652Z,63.5
2022-09-03T20:39:51.752Z,64.5
2022-09-03T20:54:31.837Z,65.3
2022-09-03T21:08:57.294Z,64.5
2022-09-03T21:23:19.756Z,64.8
2022-09-03T21:37:46.219Z,67.1
2022-09-03T21:52:11.200Z,67.8
2022-09-03T22:06:36.911Z,67.8
2022-09-03T22:21:04.357Z,68.3
2022-09-03T22:35:29.658Z,70.7
2022-09-03T22:49:59.122Z,68.4
2022-09-03T23:04:24.965Z,66.8
2022-09-03T23:18:53.064Z,65.6
2022-09-03T23:33:19.867Z,66.5
2022-09-03T23:47:46.587Z,65.9
